sensor_id;sensor_type;location;lat;lon;timestamp;temperature;humidity
14097;DHT22;7125;48.106;11.544;2022-12-05T00:02:19;1.80;99.90
14097;DHT22;7125;48.106;11.544;2022-12-05T00:04:46;1.90;99.90
14097;DHT22;7125;48.106;11.544;2022-12-05T00:07:13;1.90;99.90
14097;DHT22;7125;48.106;11.544;2022-12-05T00:09:40;1.90;99.90
14097;DHT22;7125;48.106;11.544;2022-12-05T00:12:06;1.90;99.90
14097;DHT22;7125;48.106;11.544;2022-12-05T00:14:34;1.90;99.90
14097;DHT22;7125;48.106;11.544;2022-12-05T00:17:00;1.90;99.90
14097;DHT22;7125;48.106;11.544;2022-12-05T00:19:30;1.90;99.90
14097;DHT22;7125;48.106;11.544;2022-12-05T00:21:56;1.90;99.90
14097;DHT22;7125;48.106;11.544;2022-12-05T00:24:23;1.90;99.90
14097;DHT22;7125;48.106;11.544;2022-12-05T00:26:50;1.90;99.90
14097;DHT22;7125;48.106;11.544;2022-12-05T00:29:18;1.90;99.90
14097;DHT22;7125;48.106;11.544;2022-12-05T00:31:45;1.90;99.90
14097;DHT22;7125;48.106;11.544;2022-12-05T00:34:11;1.90;99.90
14097;DHT22;7125;48.106;11.544;2022-12-05T00:36:41;1.90;99.90
14097;DHT22;7125;48.106;11.544;2022-12-05T00:39:09;1.90;99.90
14097;DHT22;7125;48.106;11.544;2022-12-05T00:41:36;1.90;99.90
14097;DHT22;7125;48.106;11.544;2022-12-05T00:44:04;1.90;99.90
14097;DHT22;7125;48.106;11.544;2022-12-05T00:46:32;1.90;99.90
14097;DHT22;7125;48.106;11.544;2022-12-05T00:49:00;1.80;99.90
14097;DHT22;7125;48.106;11.544;2022-12-05T00:51:29;1.80;99.90
14097;DHT22;7125;48.106;11.544;2022-12-05T00:53:58;1.80;99.90
14097;DHT22;7125;48.106;11.544;2022-12-05T00:56:27;1.80;99.90
14097;DHT22;7125;48.106;11.544;2022-12-05T00:58:56;1.80;99.90
14097;DHT22;7125;48.106;11.544;2022-12-05T01:01:27;1.80;99.90
14097;DHT22;7125;48.106;11.544;2022-12-05T01:03:56;1.80;99.90
14097;DHT22;7125;48.106;11.544;2022-12-05T01:06:24;1.80;99.90
14097;DHT22;7125;48.106;11.544;2022-12-05T01:08:52;1.80;99.90
14097;DHT22;7125;48.106;11.544;2022-12-05T01:11:22;1.80;99.90
14097;DHT22;7125;48.106;11.544;2022-12-05T01:13:49;1.80;99.90
14097;DHT22;7125;48.106;11.544;2022-12-05T01:16:19;1.80;99.90
14097;DHT22;7125;48.106;11.544;2022-12-05T01:18:46;1.80;99.90
14097;DHT22;7125;48.106;11.544;2022-12-05T01:21:13;1.80;99.90
14097;DHT22;7125;48.106;11.544;2022-12-05T01:23:40;1.90;99.90
14097;DHT22;7125;48.106;11.544;2022-12-05T01:26:09;1.80;99.90
14097;DHT22;7125;48.106;11.544;2022-12-05T01:28:39;1.90;99.90
14097;DHT22;7125;48.106;11.544;2022-12-05T01:31:09;1.80;99.90
14097;DHT22;7125;48.106;11.544;2022-12-05T01:33:37;1.90;99.90
14097;DHT22;7125;48.106;11.544;2022-12-05T01:36:08;1.80;99.90
14097;DHT22;7125;48.106;11.544;2022-12-05T01:38:35;1.80;99.90
14097;DHT22;7125;48.106;11.544;2022-12-05T01:41:03;1.80;99.90
14097;DHT22;7125;48.106;11.544;2022-12-05T01:43:31;1.80;99.90
14097;DHT22;7125;48.106;11.544;2022-12-05T01:45:59;1.80;99.90
14097;DHT22;7125;48.106;11.544;2022-12-05T01:48:30;1.80;99.90
14097;DHT22;7125;48.106;11.544;2022-12-05T01:50:59;1.90;99.90
14097;DHT22;7125;48.106;11.544;2022-12-05T01:53:26;1.90;99.90
14097;DHT22;7125;48.106;11.544;2022-12-05T01:55:54;1.90;99.90
14097;DHT22;7125;48.106;11.544;2022-12-05T01:58:23;1.80;99.90
14097;DHT22;7125;48.106;11.544;2022-12-05T02:00:53;1.90;99.90
14097;DHT22;7125;48.106;11.544;2022-12-05T02:03:21;1.90;99.90
14097;DHT22;7125;48.106;11.544;2022-12-05T02:05:51;1.90;99.90
14097;DHT22;7125;48.106;11.544;2022-12-05T02:08:20;1.90;99.90
14097;DHT22;7125;48.106;11.544;2022-12-05T02:10:50;1.90;99.90
14097;DHT22;7125;48.106;11.544;2022-12-05T02:13:30;1.90;99.90
14097;DHT22;7125;48.106;11.544;2022-12-05T02:16:02;1.90;99.90
14097;DHT22;7125;48.106;11.544;2022-12-05T02:18:44;1.90;99.90
14097;DHT22;7125;48.106;11.544;2022-12-05T02:28:02;2.00;99.90
14097;DHT22;7125;48.106;11.544;2022-12-05T02:30:37;1.90;99.90
14097;DHT22;7125;48.106;11.544;2022-12-05T02:35:51;1.90;99.90
14097;DHT22;7125;48.106;11.544;2022-12-05T02:38:26;1.90;99.90
14097;DHT22;7125;48.106;11.544;2022-12-05T02:43:57;1.90;99.90
14097;DHT22;7125;48.106;11.544;2022-12-05T02:46:28;2.00;99.90
14097;DHT22;7125;48.106;11.544;2022-12-05T02:48:59;2.00;99.90
14097;DHT22;7125;48.106;11.544;2022-12-05T02:51:30;2.00;99.90
14097;DHT22;7125;48.106;11.544;2022-12-05T02:54:01;1.90;99.90
14097;DHT22;7125;48.106;11.544;2022-12-05T02:56:31;1.90;99.90
14097;DHT22;7125;48.106;11.544;2022-12-05T03:01:32;1.90;99.90
14097;DHT22;7125;48.106;11.544;2022-12-05T03:04:02;1.90;99.90
14097;DHT22;7125;48.106;11.544;2022-12-05T03:06:32;1.90;99.90
14097;DHT22;7125;48.106;11.544;2022-12-05T03:09:02;1.90;99.90
14097;DHT22;7125;48.106;11.544;2022-12-05T03:11:35;1.90;99.90
14097;DHT22;7125;48.106;11.544;2022-12-05T03:14:05;1.90;99.90
14097;DHT22;7125;48.106;11.544;2022-12-05T03:22:01;1.90;99.90
14097;DHT22;7125;48.106;11.544;2022-12-05T03:24:30;1.80;99.90
14097;DHT22;7125;48.106;11.544;2022-12-05T03:29:43;1.80;99.90
14097;DHT22;7125;48.106;11.544;2022-12-05T03:32:21;1.80;99.90
14097;DHT22;7125;48.106;11.544;2022-12-05T03:40:07;1.80;99.90
14097;DHT22;7125;48.106;11.544;2022-12-05T03:42:38;1.80;99.90
14097;DHT22;7125;48.106;11.544;2022-12-05T03:45:09;1.80;99.90
14097;DHT22;7125;48.106;11.544;2022-12-05T03:47:43;1.80;99.90
14097;DHT22;7125;48.106;11.544;2022-12-05T03:50:19;1.80;99.90
14097;DHT22;7125;48.106;11.544;2022-12-05T03:52:51;1.80;99.90
14097;DHT22;7125;48.106;11.544;2022-12-05T03:55:21;1.80;99.90
14097;DHT22;7125;48.106;11.544;2022-12-05T03:57:52;1.80;99.90
14097;DHT22;7125;48.106;11.544;2022-12-05T04:00:21;1.80;99.90
14097;DHT22;7125;48.106;11.544;2022-12-05T04:02:53;1.80;99.90
14097;DHT22;7125;48.106;11.544;2022-12-05T04:05:24;1.80;99.90
14097;DHT22;7125;48.106;11.544;2022-12-05T04:07:56;1.80;99.90
14097;DHT22;7125;48.106;11.544;2022-12-05T04:10:27;1.80;99.90
14097;DHT22;7125;48.106;11.544;2022-12-05T04:12:58;1.90;99.90
14097;DHT22;7125;48.106;11.544;2022-12-05T04:15:45;1.90;99.90
14097;DHT22;7125;48.106;11.544;2022-12-05T04:18:33;1.90;99.90
14097;DHT22;7125;48.106;11.544;2022-12-05T04:21:04;1.90;99.90
14097;DHT22;7125;48.106;11.544;2022-12-05T04:23:49;2.00;99.90
14097;DHT22;7125;48.106;11.544;2022-12-05T04:26:43;2.00;99.90
14097;DHT22;7125;48.106;11.544;2022-12-05T04:29:17;2.00;99.90
14097;DHT22;7125;48.106;11.544;2022-12-05T04:31:49;2.00;99.90
14097;DHT22;7125;48.106;11.544;2022-12-05T04:34:19;2.00;99.90
14097;DHT22;7125;48.106;11.544;2022-12-05T04:36:52;2.00;99.90
14097;DHT22;7125;48.106;11.544;2022-12-05T04:39:23;2.00;99.90
14097;DHT22;7125;48.106;11.544;2022-12-05T04:41:52;2.00;99.90
14097;DHT22;7125;48.106;11.544;2022-12-05T04:44:25;2.00;99.90
14097;DHT22;7125;48.106;11.544;2022-12-05T04:46:54;2.00;99.90
14097;DHT22;7125;48.106;11.544;2022-12-05T04:49:26;2.00;99.90
14097;DHT22;7125;48.106;11.544;2022-12-05T04:51:57;2.00;99.90
14097;DHT22;7125;48.106;11.544;2022-12-05T04:54:29;2.00;99.90
14097;DHT22;7125;48.106;11.544;2022-12-05T04:57:03;2.10;99.90
14097;DHT22;7125;48.106;11.544;2022-12-05T04:59:31;2.10;99.90
14097;DHT22;7125;48.106;11.544;2022-12-05T05:02:03;2.10;99.90
14097;DHT22;7125;48.106;11.544;2022-12-05T05:04:35;2.10;99.90
14097;DHT22;7125;48.106;11.544;2022-12-05T05:07:05;2.10;99.90
14097;DHT22;7125;48.106;11.544;2022-12-05T05:09:33;2.10;99.90
14097;DHT22;7125;48.106;11.544;2022-12-05T05:12:00;2.10;99.90
14097;DHT22;7125;48.106;11.544;2022-12-05T05:14:27;2.10;99.90
14097;DHT22;7125;48.106;11.544;2022-12-05T05:16:54;2.10;99.90
14097;DHT22;7125;48.106;11.544;2022-12-05T05:19:21;2.10;99.90
14097;DHT22;7125;48.106;11.544;2022-12-05T05:21:50;2.10;99.90
14097;DHT22;7125;48.106;11.544;2022-12-05T05:24:18;2.10;99.90
14097;DHT22;7125;48.106;11.544;2022-12-05T05:26:46;2.20;99.90
14097;DHT22;7125;48.106;11.544;2022-12-05T05:29:14;2.20;99.90
14097;DHT22;7125;48.106;11.544;2022-12-05T05:31:41;2.20;99.90
14097;DHT22;7125;48.106;11.544;2022-12-05T05:34:10;2.20;99.90
14097;DHT22;7125;48.106;11.544;2022-12-05T05:36:37;2.20;99.90
14097;DHT22;7125;48.106;11.544;2022-12-05T05:39:10;2.20;99.90
14097;DHT22;7125;48.106;11.544;2022-12-05T05:41:37;2.20;99.90
14097;DHT22;7125;48.106;11.544;2022-12-05T05:44:04;2.20;99.90
14097;DHT22;7125;48.106;11.544;2022-12-05T05:46:33;2.30;99.90
14097;DHT22;7125;48.106;11.544;2022-12-05T05:49:01;2.30;99.90
14097;DHT22;7125;48.106;11.544;2022-12-05T05:51:28;2.30;99.90
14097;DHT22;7125;48.106;11.544;2022-12-05T05:53:56;2.30;99.90
14097;DHT22;7125;48.106;11.544;2022-12-05T05:56:26;2.40;99.90
14097;DHT22;7125;48.106;11.544;2022-12-05T05:58:57;2.40;99.90
14097;DHT22;7125;48.106;11.544;2022-12-05T06:01:25;2.40;99.90
14097;DHT22;7125;48.106;11.544;2022-12-05T06:03:55;2.40;99.90
14097;DHT22;7125;48.106;11.544;2022-12-05T06:06:22;2.40;99.90
14097;DHT22;7125;48.106;11.544;2022-12-05T06:08:49;2.40;99.90
14097;DHT22;7125;48.106;11.544;2022-12-05T06:11:18;2.50;99.90
14097;DHT22;7125;48.106;11.544;2022-12-05T06:13:47;2.50;99.90
14097;DHT22;7125;48.106;11.544;2022-12-05T06:16:15;2.50;99.90
14097;DHT22;7125;48.106;11.544;2022-12-05T06:18:43;2.50;99.90
14097;DHT22;7125;48.106;11.544;2022-12-05T06:21:10;2.60;99.90
14097;DHT22;7125;48.106;11.544;2022-12-05T06:23:38;2.50;99.90
14097;DHT22;7125;48.106;11.544;2022-12-05T06:26:09;2.50;99.90
14097;DHT22;7125;48.106;11.544;2022-12-05T06:28:36;2.50;99.90
14097;DHT22;7125;48.106;11.544;2022-12-05T06:31:10;2.50;99.90
14097;DHT22;7125;48.106;11.544;2022-12-05T06:33:37;2.50;99.90
14097;DHT22;7125;48.106;11.544;2022-12-05T06:36:07;2.50;99.90
14097;DHT22;7125;48.106;11.544;2022-12-05T06:38:34;2.60;99.90
14097;DHT22;7125;48.106;11.544;2022-12-05T06:41:04;2.60;99.90
14097;DHT22;7125;48.106;11.544;2022-12-05T06:43:32;2.50;99.90
14097;DHT22;7125;48.106;11.544;2022-12-05T06:45:59;2.50;99.90
14097;DHT22;7125;48.106;11.544;2022-12-05T06:48:30;2.50;99.90
14097;DHT22;7125;48.106;11.544;2022-12-05T06:50:57;2.50;99.90
14097;DHT22;7125;48.106;11.544;2022-12-05T06:53:24;2.50;99.90
14097;DHT22;7125;48.106;11.544;2022-12-05T06:55:55;2.50;99.90
14097;DHT22;7125;48.106;11.544;2022-12-05T06:58:25;2.60;99.90
14097;DHT22;7125;48.106;11.544;2022-12-05T07:00:53;2.60;99.90
14097;DHT22;7125;48.106;11.544;2022-12-05T07:03:51;2.70;99.90
14097;DHT22;7125;48.106;11.544;2022-12-05T07:06:19;2.70;99.90
14097;DHT22;7125;48.106;11.544;2022-12-05T07:08:46;2.70;99.90
14097;DHT22;7125;48.106;11.544;2022-12-05T07:11:13;2.70;99.90
14097;DHT22;7125;48.106;11.544;2022-12-05T07:13:40;2.70;99.90
14097;DHT22;7125;48.106;11.544;2022-12-05T07:16:07;2.80;99.90
14097;DHT22;7125;48.106;11.544;2022-12-05T07:18:35;2.70;99.90
14097;DHT22;7125;48.106;11.544;2022-12-05T07:21:05;2.80;99.90
14097;DHT22;7125;48.106;11.544;2022-12-05T07:23:33;2.80;99.90
14097;DHT22;7125;48.106;11.544;2022-12-05T07:26:04;2.80;99.90
14097;DHT22;7125;48.106;11.544;2022-12-05T07:28:32;2.80;99.90
14097;DHT22;7125;48.106;11.544;2022-12-05T07:30:59;2.80;99.90
14097;DHT22;7125;48.106;11.544;2022-12-05T07:33:28;2.80;99.90
14097;DHT22;7125;48.106;11.544;2022-12-05T07:35:59;2.80;99.90
14097;DHT22;7125;48.106;11.544;2022-12-05T07:38:28;2.90;99.90
14097;DHT22;7125;48.106;11.544;2022-12-05T07:40:55;2.90;99.90
14097;DHT22;7125;48.106;11.544;2022-12-05T07:43:23;2.90;99.90
14097;DHT22;7125;48.106;11.544;2022-12-05T07:45:50;3.00;99.90
14097;DHT22;7125;48.106;11.544;2022-12-05T07:48:17;3.00;99.90
14097;DHT22;7125;48.106;11.544;2022-12-05T07:50:43;3.00;99.90
14097;DHT22;7125;48.106;11.544;2022-12-05T07:53:10;3.10;99.90
14097;DHT22;7125;48.106;11.544;2022-12-05T07:55:39;3.10;99.90
14097;DHT22;7125;48.106;11.544;2022-12-05T07:58:06;3.10;99.90
14097;DHT22;7125;48.106;11.544;2022-12-05T08:00:33;3.10;99.90
14097;DHT22;7125;48.106;11.544;2022-12-05T08:03:01;3.10;99.90
14097;DHT22;7125;48.106;11.544;2022-12-05T08:05:28;3.20;99.90
14097;DHT22;7125;48.106;11.544;2022-12-05T08:07:55;3.20;99.90
14097;DHT22;7125;48.106;11.544;2022-12-05T08:10:22;3.20;99.90
14097;DHT22;7125;48.106;11.544;2022-12-05T08:12:50;3.20;99.90
14097;DHT22;7125;48.106;11.544;2022-12-05T08:15:17;3.20;99.90
14097;DHT22;7125;48.106;11.544;2022-12-05T08:17:44;3.30;99.90
14097;DHT22;7125;48.106;11.544;2022-12-05T08:20:12;3.20;99.90
14097;DHT22;7125;48.106;11.544;2022-12-05T08:22:39;3.20;99.90
14097;DHT22;7125;48.106;11.544;2022-12-05T08:25:06;3.20;99.90
14097;DHT22;7125;48.106;11.544;2022-12-05T08:27:33;3.30;99.90
14097;DHT22;7125;48.106;11.544;2022-12-05T08:30:03;3.30;99.90
14097;DHT22;7125;48.106;11.544;2022-12-05T08:32:31;3.30;99.90
14097;DHT22;7125;48.106;11.544;2022-12-05T08:34:58;3.40;99.90
14097;DHT22;7125;48.106;11.544;2022-12-05T08:37:25;3.40;99.90
14097;DHT22;7125;48.106;11.544;2022-12-05T08:39:52;3.40;99.90
14097;DHT22;7125;48.106;11.544;2022-12-05T08:42:19;3.50;99.90
14097;DHT22;7125;48.106;11.544;2022-12-05T08:44:46;3.50;99.90
14097;DHT22;7125;48.106;11.544;2022-12-05T08:47:17;3.50;99.90
14097;DHT22;7125;48.106;11.544;2022-12-05T08:49:45;3.50;99.90
14097;DHT22;7125;48.106;11.544;2022-12-05T08:52:11;3.50;99.90
14097;DHT22;7125;48.106;11.544;2022-12-05T08:54:39;3.50;99.90
14097;DHT22;7125;48.106;11.544;2022-12-05T08:57:06;3.50;99.90
14097;DHT22;7125;48.106;11.544;2022-12-05T08:59:33;3.50;99.90
14097;DHT22;7125;48.106;11.544;2022-12-05T09:02:02;3.50;99.90
14097;DHT22;7125;48.106;11.544;2022-12-05T09:04:30;3.40;99.90
14097;DHT22;7125;48.106;11.544;2022-12-05T09:06:58;3.40;99.90
14097;DHT22;7125;48.106;11.544;2022-12-05T09:09:26;3.40;99.90
14097;DHT22;7125;48.106;11.544;2022-12-05T09:11:53;3.40;99.90
14097;DHT22;7125;48.106;11.544;2022-12-05T09:14:22;3.40;99.90
14097;DHT22;7125;48.106;11.544;2022-12-05T09:16:49;3.30;99.90
14097;DHT22;7125;48.106;11.544;2022-12-05T09:19:18;3.30;99.90
14097;DHT22;7125;48.106;11.544;2022-12-05T09:21:49;3.30;99.90
14097;DHT22;7125;48.106;11.544;2022-12-05T09:24:17;3.30;99.90
14097;DHT22;7125;48.106;11.544;2022-12-05T09:26:44;3.40;99.90
14097;DHT22;7125;48.106;11.544;2022-12-05T09:29:12;3.40;99.90
14097;DHT22;7125;48.106;11.544;2022-12-05T09:31:39;3.40;99.90
14097;DHT22;7125;48.106;11.544;2022-12-05T09:34:08;3.50;99.90
14097;DHT22;7125;48.106;11.544;2022-12-05T09:36:37;3.50;99.90
14097;DHT22;7125;48.106;11.544;2022-12-05T09:39:06;3.50;99.90
14097;DHT22;7125;48.106;11.544;2022-12-05T09:45:04;3.50;99.90
14097;DHT22;7125;48.106;11.544;2022-12-05T09:47:45;3.50;99.90
14097;DHT22;7125;48.106;11.544;2022-12-05T09:50:17;3.50;99.90
14097;DHT22;7125;48.106;11.544;2022-12-05T09:52:58;3.60;99.90
14097;DHT22;7125;48.106;11.544;2022-12-05T09:55:33;3.60;99.90
14097;DHT22;7125;48.106;11.544;2022-12-05T09:58:02;3.60;99.90
14097;DHT22;7125;48.106;11.544;2022-12-05T10:00:32;3.50;99.90
14097;DHT22;7125;48.106;11.544;2022-12-05T10:03:18;3.60;99.90
14097;DHT22;7125;48.106;11.544;2022-12-05T10:05:52;3.60;99.90
14097;DHT22;7125;48.106;11.544;2022-12-05T10:08:27;3.60;99.90
14097;DHT22;7125;48.106;11.544;2022-12-05T10:11:01;3.60;99.90
14097;DHT22;7125;48.106;11.544;2022-12-05T10:13:39;3.60;99.90
14097;DHT22;7125;48.106;11.544;2022-12-05T10:16:13;3.70;99.90
14097;DHT22;7125;48.106;11.544;2022-12-05T10:18:45;3.70;99.90
14097;DHT22;7125;48.106;11.544;2022-12-05T10:21:16;3.80;99.90
14097;DHT22;7125;48.106;11.544;2022-12-05T10:23:50;3.80;99.90
14097;DHT22;7125;48.106;11.544;2022-12-05T10:26:21;3.80;99.90
14097;DHT22;7125;48.106;11.544;2022-12-05T10:28:54;3.80;99.90
14097;DHT22;7125;48.106;11.544;2022-12-05T10:31:25;3.90;99.90
14097;DHT22;7125;48.106;11.544;2022-12-05T10:34:00;3.90;99.90
14097;DHT22;7125;48.106;11.544;2022-12-05T10:36:29;3.90;99.90
14097;DHT22;7125;48.106;11.544;2022-12-05T10:38:56;4.00;99.90
14097;DHT22;7125;48.106;11.544;2022-12-05T10:41:25;4.10;99.90
14097;DHT22;7125;48.106;11.544;2022-12-05T10:43:53;4.10;99.90
14097;DHT22;7125;48.106;11.544;2022-12-05T10:46:22;4.20;99.90
14097;DHT22;7125;48.106;11.544;2022-12-05T10:48:49;4.20;99.90
14097;DHT22;7125;48.106;11.544;2022-12-05T10:51:17;4.30;99.90
14097;DHT22;7125;48.106;11.544;2022-12-05T10:53:48;4.40;99.90
14097;DHT22;7125;48.106;11.544;2022-12-05T10:56:39;4.40;99.90
14097;DHT22;7125;48.106;11.544;2022-12-05T10:59:08;4.50;99.90
14097;DHT22;7125;48.106;11.544;2022-12-05T11:01:37;4.60;99.90
14097;DHT22;7125;48.106;11.544;2022-12-05T11:04:19;4.60;99.90
14097;DHT22;7125;48.106;11.544;2022-12-05T11:06:52;4.60;99.90
14097;DHT22;7125;48.106;11.544;2022-12-05T11:09:22;4.60;99.90
14097;DHT22;7125;48.106;11.544;2022-12-05T11:12:16;4.60;99.90
14097;DHT22;7125;48.106;11.544;2022-12-05T11:14:56;4.60;99.90
14097;DHT22;7125;48.106;11.544;2022-12-05T11:17:26;4.70;99.90
14097;DHT22;7125;48.106;11.544;2022-12-05T11:19:53;4.70;99.90
14097;DHT22;7125;48.106;11.544;2022-12-05T11:22:30;4.70;99.90
14097;DHT22;7125;48.106;11.544;2022-12-05T11:24:57;4.80;99.90
14097;DHT22;7125;48.106;11.544;2022-12-05T11:27:29;4.80;99.90
14097;DHT22;7125;48.106;11.544;2022-12-05T11:29:59;4.80;99.90
14097;DHT22;7125;48.106;11.544;2022-12-05T11:32:28;4.80;99.90
14097;DHT22;7125;48.106;11.544;2022-12-05T11:35:06;4.90;99.90
14097;DHT22;7125;48.106;11.544;2022-12-05T11:37:37;4.80;99.90
14097;DHT22;7125;48.106;11.544;2022-12-05T11:40:13;4.80;99.90
14097;DHT22;7125;48.106;11.544;2022-12-05T11:45:49;4.90;99.90
14097;DHT22;7125;48.106;11.544;2022-12-05T11:48:32;5.00;99.90
14097;DHT22;7125;48.106;11.544;2022-12-05T11:51:14;5.10;99.90
14097;DHT22;7125;48.106;11.544;2022-12-05T11:54:06;5.20;99.90
14097;DHT22;7125;48.106;11.544;2022-12-05T11:56:46;5.20;99.90
14097;DHT22;7125;48.106;11.544;2022-12-05T11:59:36;5.20;99.90
14097;DHT22;7125;48.106;11.544;2022-12-05T12:02:15;5.30;99.90
14097;DHT22;7125;48.106;11.544;2022-12-05T12:04:50;5.30;99.90
14097;DHT22;7125;48.106;11.544;2022-12-05T12:07:35;5.30;99.90
14097;DHT22;7125;48.106;11.544;2022-12-05T12:10:13;5.40;99.90
14097;DHT22;7125;48.106;11.544;2022-12-05T12:12:55;5.40;99.90
14097;DHT22;7125;48.106;11.544;2022-12-05T12:15:55;5.40;99.90
14097;DHT22;7125;48.106;11.544;2022-12-05T12:18:47;5.40;99.90
14097;DHT22;7125;48.106;11.544;2022-12-05T12:21:21;5.40;99.90
14097;DHT22;7125;48.106;11.544;2022-12-05T12:24:03;5.40;99.90
14097;DHT22;7125;48.106;11.544;2022-12-05T12:26:52;5.40;99.90
14097;DHT22;7125;48.106;11.544;2022-12-05T12:29:32;5.40;99.90
14097;DHT22;7125;48.106;11.544;2022-12-05T12:32:15;5.30;99.90
14097;DHT22;7125;48.106;11.544;2022-12-05T12:34:54;5.40;99.90
14097;DHT22;7125;48.106;11.544;2022-12-05T12:37:32;5.40;99.90
14097;DHT22;7125;48.106;11.544;2022-12-05T12:40:11;5.30;99.90
14097;DHT22;7125;48.106;11.544;2022-12-05T12:42:48;5.30;99.90
14097;DHT22;7125;48.106;11.544;2022-12-05T12:48:17;5.30;99.90
14097;DHT22;7125;48.106;11.544;2022-12-05T12:50:51;5.30;99.90
14097;DHT22;7125;48.106;11.544;2022-12-05T12:56:24;5.20;99.90
14097;DHT22;7125;48.106;11.544;2022-12-05T12:59:13;5.20;99.90
14097;DHT22;7125;48.106;11.544;2022-12-05T13:01:45;5.10;99.90
14097;DHT22;7125;48.106;11.544;2022-12-05T13:04:19;5.10;99.90
14097;DHT22;7125;48.106;11.544;2022-12-05T13:06:51;5.20;99.90
14097;DHT22;7125;48.106;11.544;2022-12-05T13:09:23;5.10;99.90
14097;DHT22;7125;48.106;11.544;2022-12-05T13:11:54;5.10;99.90
14097;DHT22;7125;48.106;11.544;2022-12-05T13:14:23;5.20;99.90
14097;DHT22;7125;48.106;11.544;2022-12-05T13:16:53;5.10;99.90
14097;DHT22;7125;48.106;11.544;2022-12-05T13:19:27;5.10;99.90
14097;DHT22;7125;48.106;11.544;2022-12-05T13:21:56;5.10;99.90
14097;DHT22;7125;48.106;11.544;2022-12-05T13:24:25;5.00;99.90
14097;DHT22;7125;48.106;11.544;2022-12-05T13:26:53;5.10;99.90
14097;DHT22;7125;48.106;11.544;2022-12-05T13:29:28;5.00;99.90
14097;DHT22;7125;48.106;11.544;2022-12-05T13:31:56;5.00;99.90
14097;DHT22;7125;48.106;11.544;2022-12-05T13:34:43;4.90;99.90
14097;DHT22;7125;48.106;11.544;2022-12-05T13:37:18;4.90;99.90
14097;DHT22;7125;48.106;11.544;2022-12-05T13:40:03;4.90;99.90
14097;DHT22;7125;48.106;11.544;2022-12-05T13:42:58;4.80;99.90
14097;DHT22;7125;48.106;11.544;2022-12-05T13:45:26;4.80;99.90
14097;DHT22;7125;48.106;11.544;2022-12-05T13:48:04;4.80;99.90
14097;DHT22;7125;48.106;11.544;2022-12-05T13:50:44;4.70;99.90
14097;DHT22;7125;48.106;11.544;2022-12-05T13:53:35;4.70;99.90
14097;DHT22;7125;48.106;11.544;2022-12-05T13:56:05;4.70;99.90
14097;DHT22;7125;48.106;11.544;2022-12-05T13:58:47;4.60;99.90
14097;DHT22;7125;48.106;11.544;2022-12-05T14:01:44;4.60;99.90
14097;DHT22;7125;48.106;11.544;2022-12-05T14:04:23;4.60;99.90
14097;DHT22;7125;48.106;11.544;2022-12-05T14:07:09;4.60;99.90
14097;DHT22;7125;48.106;11.544;2022-12-05T14:09:49;4.50;99.90
14097;DHT22;7125;48.106;11.544;2022-12-05T14:15:28;4.60;99.90
14097;DHT22;7125;48.106;11.544;2022-12-05T14:18:00;4.60;99.90
14097;DHT22;7125;48.106;11.544;2022-12-05T14:20:41;4.60;99.90
14097;DHT22;7125;48.106;11.544;2022-12-05T14:26:13;4.70;99.90
14097;DHT22;7125;48.106;11.544;2022-12-05T14:28:57;4.70;99.90
14097;DHT22;7125;48.106;11.544;2022-12-05T14:31:37;4.60;99.90
14097;DHT22;7125;48.106;11.544;2022-12-05T14:34:15;4.60;99.90
14097;DHT22;7125;48.106;11.544;2022-12-05T14:36:55;4.60;99.90
14097;DHT22;7125;48.106;11.544;2022-12-05T14:39:32;4.60;99.90
14097;DHT22;7125;48.106;11.544;2022-12-05T14:42:01;4.50;99.90
14097;DHT22;7125;48.106;11.544;2022-12-05T14:44:30;4.50;99.90
14097;DHT22;7125;48.106;11.544;2022-12-05T14:46:59;4.50;99.90
14097;DHT22;7125;48.106;11.544;2022-12-05T14:52:20;4.40;99.90
14097;DHT22;7125;48.106;11.544;2022-12-05T14:54:50;4.40;99.90
14097;DHT22;7125;48.106;11.544;2022-12-05T14:57:18;4.30;99.90
14097;DHT22;7125;48.106;11.544;2022-12-05T14:59:50;4.30;99.90
14097;DHT22;7125;48.106;11.544;2022-12-05T15:02:21;4.30;99.90
14097;DHT22;7125;48.106;11.544;2022-12-05T15:04:51;4.30;99.90
14097;DHT22;7125;48.106;11.544;2022-12-05T15:07:23;4.20;99.90
14097;DHT22;7125;48.106;11.544;2022-12-05T15:09:56;4.20;99.90
14097;DHT22;7125;48.106;11.544;2022-12-05T15:12:28;4.20;99.90
14097;DHT22;7125;48.106;11.544;2022-12-05T15:15:02;4.10;99.90
14097;DHT22;7125;48.106;11.544;2022-12-05T15:17:37;4.00;99.90
14097;DHT22;7125;48.106;11.544;2022-12-05T15:20:10;4.00;99.90
14097;DHT22;7125;48.106;11.544;2022-12-05T15:22:41;4.00;99.90
14097;DHT22;7125;48.106;11.544;2022-12-05T15:25:27;4.00;99.90
14097;DHT22;7125;48.106;11.544;2022-12-05T15:28:00;4.00;99.90
14097;DHT22;7125;48.106;11.544;2022-12-05T15:30:28;3.90;99.90
14097;DHT22;7125;48.106;11.544;2022-12-05T15:32:57;3.90;99.90
14097;DHT22;7125;48.106;11.544;2022-12-05T15:35:25;3.90;99.90
14097;DHT22;7125;48.106;11.544;2022-12-05T15:37:57;3.90;99.90
14097;DHT22;7125;48.106;11.544;2022-12-05T15:40:31;3.90;99.90
14097;DHT22;7125;48.106;11.544;2022-12-05T15:43:17;3.80;99.90
14097;DHT22;7125;48.106;11.544;2022-12-05T15:45:49;3.80;99.90
14097;DHT22;7125;48.106;11.544;2022-12-05T15:48:16;3.80;99.90
14097;DHT22;7125;48.106;11.544;2022-12-05T15:50:44;3.80;99.90
14097;DHT22;7125;48.106;11.544;2022-12-05T15:53:16;3.80;99.90
14097;DHT22;7125;48.106;11.544;2022-12-05T15:55:51;3.90;99.90
14097;DHT22;7125;48.106;11.544;2022-12-05T15:58:23;3.80;99.90
14097;DHT22;7125;48.106;11.544;2022-12-05T16:00:54;3.90;99.90
14097;DHT22;7125;48.106;11.544;2022-12-05T16:03:25;3.90;99.90
14097;DHT22;7125;48.106;11.544;2022-12-05T16:05:55;3.90;99.90
14097;DHT22;7125;48.106;11.544;2022-12-05T16:08:25;3.80;99.90
14097;DHT22;7125;48.106;11.544;2022-12-05T16:10:57;3.80;99.90
14097;DHT22;7125;48.106;11.544;2022-12-05T16:13:32;3.80;99.90
14097;DHT22;7125;48.106;11.544;2022-12-05T16:15:59;3.80;99.90
14097;DHT22;7125;48.106;11.544;2022-12-05T16:18:28;3.80;99.90
14097;DHT22;7125;48.106;11.544;2022-12-05T16:20:56;3.70;99.90
14097;DHT22;7125;48.106;11.544;2022-12-05T16:23:26;3.70;99.90
14097;DHT22;7125;48.106;11.544;2022-12-05T16:28:57;3.80;99.90
14097;DHT22;7125;48.106;11.544;2022-12-05T16:31:26;3.80;99.90
14097;DHT22;7125;48.106;11.544;2022-12-05T16:34:01;3.80;99.90
14097;DHT22;7125;48.106;11.544;2022-12-05T16:36:31;3.80;99.90
14097;DHT22;7125;48.106;11.544;2022-12-05T16:39:03;3.80;99.90
14097;DHT22;7125;48.106;11.544;2022-12-05T16:41:32;3.80;99.90
14097;DHT22;7125;48.106;11.544;2022-12-05T16:44:01;3.80;99.90
14097;DHT22;7125;48.106;11.544;2022-12-05T16:46:43;3.80;99.90
14097;DHT22;7125;48.106;11.544;2022-12-05T16:49:30;3.70;99.90
14097;DHT22;7125;48.106;11.544;2022-12-05T16:51:59;3.70;99.90
14097;DHT22;7125;48.106;11.544;2022-12-05T16:54:27;3.70;99.90
14097;DHT22;7125;48.106;11.544;2022-12-05T16:56:54;3.70;99.90
14097;DHT22;7125;48.106;11.544;2022-12-05T16:59:28;3.70;99.90
14097;DHT22;7125;48.106;11.544;2022-12-05T17:01:56;3.70;99.90
14097;DHT22;7125;48.106;11.544;2022-12-05T17:04:24;3.70;99.90
14097;DHT22;7125;48.106;11.544;2022-12-05T17:06:51;3.60;99.90